aviador You're here:

YFRT Decoded Metar

FORREST in _UNIDENTIFIED
Report Time2017-08-24 02:30:00
UTC Time2017-08-24 03:09:11
Flight Rules unknown UNKNOWN
Wind090° at 10 kt
W.Decomp.*RWY 09: 10.0 kt HW 0.5 kt LCW
RWY 36: 0.5 kt HW 10.0 kt RCW
W.Rank090° ranks 5
Current wind is above 090° avg. (9.1)
VisibilityN/A
Phenomena:N/A
Clouds:N/A
Expected CloudBase > 4,000 ft AGL from Temp-Dew spread
CeilingNone
Temp17°C (ISA +3)
Dew Point07°C (52% RH)
AAT12.7°C
QNH1030 hPa
Density Alt436 ft
Elevation512 ft
Report Wrong Elevation
Raw Report
YFRT 240230Z AUTO 09010KT //// // ////// 17/07 Q1030=

Extra information for YFRT:More info

Metar Taf Metar & Taf Last 4 Metars F.Rules Stats Wind Profile Meteogram Temp Stats Airport Information Weather charts Add Link Nearby VenuesMetar ALERT Operation Metar Decoded Social comments